sensor_id;sensor_type;location;lat;lon;timestamp;pressure;altitude;pressure_sealevel;temperature;humidity
9421;BME280;4749;51.398;5.466;2023-05-14T00:01:31;101692.16;;;17.06;100.00
9421;BME280;4749;51.398;5.466;2023-05-14T00:03:58;101689.56;;;17.03;100.00
9421;BME280;4749;51.398;5.466;2023-05-14T00:06:25;101685.16;;;17.01;100.00
9421;BME280;4749;51.398;5.466;2023-05-14T00:08:52;101676.34;;;16.96;100.00
9421;BME280;4749;51.398;5.466;2023-05-14T00:11:19;101672.84;;;16.94;100.00
9421;BME280;4749;51.398;5.466;2023-05-14T00:13:48;101679.06;;;16.91;100.00
9421;BME280;4749;51.398;5.466;2023-05-14T00:16:15;101679.97;;;16.88;100.00
9421;BME280;4749;51.398;5.466;2023-05-14T00:18:42;101672.94;;;16.84;100.00
9421;BME280;4749;51.398;5.466;2023-05-14T00:21:09;101671.19;;;16.82;100.00
9421;BME280;4749;51.398;5.466;2023-05-14T00:23:37;101673.84;;;16.80;100.00
9421;BME280;4749;51.398;5.466;2023-05-14T00:26:04;101672.97;;;16.80;100.00
9421;BME280;4749;51.398;5.466;2023-05-14T00:28:31;101673.88;;;16.77;100.00
9421;BME280;4749;51.398;5.466;2023-05-14T00:30:58;101671.28;;;16.74;100.00
9421;BME280;4749;51.398;5.466;2023-05-14T00:33:25;101673.03;;;16.72;100.00
9421;BME280;4749;51.398;5.466;2023-05-14T00:35:52;101665.09;;;16.71;100.00
9421;BME280;4749;51.398;5.466;2023-05-14T00:38:19;101658.03;;;16.70;100.00
9421;BME280;4749;51.398;5.466;2023-05-14T00:40:46;101659.81;;;16.66;100.00
9421;BME280;4749;51.398;5.466;2023-05-14T00:43:19;101654.47;;;16.65;100.00
9421;BME280;4749;51.398;5.466;2023-05-14T00:45:53;101651.84;;;16.63;100.00
9421;BME280;4749;51.398;5.466;2023-05-14T00:48:22;101650.13;;;16.60;100.00
9421;BME280;4749;51.398;5.466;2023-05-14T00:50:50;101652.78;;;16.59;100.00
9421;BME280;4749;51.398;5.466;2023-05-14T00:53:18;101642.19;;;16.54;100.00
9421;BME280;4749;51.398;5.466;2023-05-14T00:55:46;101650.22;;;16.50;100.00
9421;BME280;4749;51.398;5.466;2023-05-14T00:58:14;101647.63;;;16.42;100.00
9421;BME280;4749;51.398;5.466;2023-05-14T01:00:42;101650.34;;;16.35;100.00
9421;BME280;4749;51.398;5.466;2023-05-14T01:03:09;101646.88;;;16.26;100.00
9421;BME280;4749;51.398;5.466;2023-05-14T01:08:51;101647.84;;;16.13;100.00
9421;BME280;4749;51.398;5.466;2023-05-14T01:11:48;101653.19;;;16.10;100.00
9421;BME280;4749;51.398;5.466;2023-05-14T01:14:21;101653.25;;;16.02;100.00
9421;BME280;4749;51.398;5.466;2023-05-14T01:16:55;101648.00;;;15.98;100.00
9421;BME280;4749;51.398;5.466;2023-05-14T01:19:38;101637.38;;;15.95;100.00
9421;BME280;4749;51.398;5.466;2023-05-14T01:22:06;101638.28;;;15.92;100.00
9421;BME280;4749;51.398;5.466;2023-05-14T01:24:33;101638.31;;;15.89;100.00
9421;BME280;4749;51.398;5.466;2023-05-14T01:29:44;101642.78;;;15.83;100.00
9421;BME280;4749;51.398;5.466;2023-05-14T01:32:15;101646.31;;;15.79;100.00
9421;BME280;4749;51.398;5.466;2023-05-14T01:34:46;101645.50;;;15.73;100.00
9421;BME280;4749;51.398;5.466;2023-05-14T01:37:14;101640.22;;;15.67;100.00
9421;BME280;4749;51.398;5.466;2023-05-14T01:39:42;101631.41;;;15.64;100.00
9421;BME280;4749;51.398;5.466;2023-05-14T01:42:10;101636.69;;;15.58;100.00
9421;BME280;4749;51.398;5.466;2023-05-14T01:44:37;101639.34;;;15.55;100.00
9421;BME280;4749;51.398;5.466;2023-05-14T01:47:05;101638.53;;;15.48;100.00
9421;BME280;4749;51.398;5.466;2023-05-14T01:49:32;101626.16;;;15.44;100.00
9421;BME280;4749;51.398;5.466;2023-05-14T01:51:59;101627.97;;;15.39;100.00
9421;BME280;4749;51.398;5.466;2023-05-14T01:54:26;101634.16;;;15.36;100.00
9421;BME280;4749;51.398;5.466;2023-05-14T01:56:53;101641.25;;;15.31;100.00
9421;BME280;4749;51.398;5.466;2023-05-14T01:59:20;101632.44;;;15.26;100.00
9421;BME280;4749;51.398;5.466;2023-05-14T02:01:47;101635.06;;;15.21;100.00
9421;BME280;4749;51.398;5.466;2023-05-14T02:04:14;101634.22;;;15.18;100.00
9421;BME280;4749;51.398;5.466;2023-05-14T02:06:41;101628.97;;;15.13;100.00
9421;BME280;4749;51.398;5.466;2023-05-14T02:09:09;101624.56;;;15.08;100.00
9421;BME280;4749;51.398;5.466;2023-05-14T02:11:36;101636.03;;;15.02;100.00
9421;BME280;4749;51.398;5.466;2023-05-14T02:14:03;101632.53;;;14.97;100.00
9421;BME280;4749;51.398;5.466;2023-05-14T02:16:30;101640.47;;;14.92;100.00
9421;BME280;4749;51.398;5.466;2023-05-14T02:18:57;101631.69;;;14.89;100.00
9421;BME280;4749;51.398;5.466;2023-05-14T02:21:24;101634.31;;;14.84;100.00
9421;BME280;4749;51.398;5.466;2023-05-14T02:23:51;101636.09;;;14.79;100.00
9421;BME280;4749;51.398;5.466;2023-05-14T02:26:18;101635.22;;;14.76;100.00
9421;BME280;4749;51.398;5.466;2023-05-14T02:28:45;101631.72;;;14.74;100.00
9421;BME280;4749;51.398;5.466;2023-05-14T02:31:13;101631.72;;;14.72;100.00
9421;BME280;4749;51.398;5.466;2023-05-14T02:33:40;101630.81;;;14.70;100.00
9421;BME280;4749;51.398;5.466;2023-05-14T02:36:07;101628.19;;;14.69;100.00
9421;BME280;4749;51.398;5.466;2023-05-14T02:38:34;101622.00;;;14.67;100.00
9421;BME280;4749;51.398;5.466;2023-05-14T02:41:01;101612.31;;;14.66;100.00
9421;BME280;4749;51.398;5.466;2023-05-14T02:43:29;101622.03;;;14.63;100.00
9421;BME280;4749;51.398;5.466;2023-05-14T02:45:56;101620.25;;;14.62;100.00
9421;BME280;4749;51.398;5.466;2023-05-14T02:48:23;101621.13;;;14.60;100.00
9421;BME280;4749;51.398;5.466;2023-05-14T02:50:50;101614.97;;;14.56;100.00
9421;BME280;4749;51.398;5.466;2023-05-14T02:53:18;101617.63;;;14.53;100.00
9421;BME280;4749;51.398;5.466;2023-05-14T02:55:45;101622.91;;;14.52;100.00
9421;BME280;4749;51.398;5.466;2023-05-14T02:58:12;101615.84;;;14.51;100.00
9421;BME280;4749;51.398;5.466;2023-05-14T03:00:39;101609.69;;;14.50;100.00
9421;BME280;4749;51.398;5.466;2023-05-14T03:03:07;101610.56;;;14.51;100.00
9421;BME280;4749;51.398;5.466;2023-05-14T03:05:34;101610.56;;;14.51;100.00
9421;BME280;4749;51.398;5.466;2023-05-14T03:08:01;101606.16;;;14.51;100.00
9421;BME280;4749;51.398;5.466;2023-05-14T03:10:28;101616.75;;;14.50;100.00
9421;BME280;4749;51.398;5.466;2023-05-14T03:12:55;101618.50;;;14.49;100.00
9421;BME280;4749;51.398;5.466;2023-05-14T03:15:22;101615.88;;;14.46;100.00
9421;BME280;4749;51.398;5.466;2023-05-14T03:17:50;101611.44;;;14.45;100.00
9421;BME280;4749;51.398;5.466;2023-05-14T03:20:17;101609.66;;;14.43;100.00
9421;BME280;4749;51.398;5.466;2023-05-14T03:22:44;101609.69;;;14.40;100.00
9421;BME280;4749;51.398;5.466;2023-05-14T03:25:11;101611.44;;;14.33;100.00
9421;BME280;4749;51.398;5.466;2023-05-14T03:27:38;101601.72;;;14.27;100.00
9421;BME280;4749;51.398;5.466;2023-05-14T03:30:06;101607.03;;;14.24;100.00
9421;BME280;4749;51.398;5.466;2023-05-14T03:32:33;101606.13;;;14.21;100.00
9421;BME280;4749;51.398;5.466;2023-05-14T03:35:00;101599.97;;;14.16;100.00
9421;BME280;4749;51.398;5.466;2023-05-14T03:37:27;101600.88;;;14.13;100.00
9421;BME280;4749;51.398;5.466;2023-05-14T03:39:54;101600.84;;;14.12;100.00
9421;BME280;4749;51.398;5.466;2023-05-14T03:42:21;101607.03;;;14.11;100.00
9421;BME280;4749;51.398;5.466;2023-05-14T03:44:48;101592.94;;;14.08;100.00
9421;BME280;4749;51.398;5.466;2023-05-14T03:47:16;101592.94;;;14.08;100.00
9421;BME280;4749;51.398;5.466;2023-05-14T03:49:46;101600.84;;;14.12;100.00
9421;BME280;4749;51.398;5.466;2023-05-14T03:52:13;101597.34;;;14.08;100.00
9421;BME280;4749;51.398;5.466;2023-05-14T03:54:40;101594.69;;;14.06;100.00
9421;BME280;4749;51.398;5.466;2023-05-14T03:57:07;101597.34;;;14.05;100.00
9421;BME280;4749;51.398;5.466;2023-05-14T03:59:34;101597.31;;;14.02;100.00
9421;BME280;4749;51.398;5.466;2023-05-14T04:02:01;101587.63;;;14.01;100.00
9421;BME280;4749;51.398;5.466;2023-05-14T04:04:28;101599.97;;;14.02;100.00
9421;BME280;4749;51.398;5.466;2023-05-14T04:06:55;101606.13;;;14.02;100.00
9421;BME280;4749;51.398;5.466;2023-05-14T04:09:22;101606.13;;;14.02;100.00
9421;BME280;4749;51.398;5.466;2023-05-14T04:11:49;101614.06;;;14.01;100.00
9421;BME280;4749;51.398;5.466;2023-05-14T04:14:17;101610.53;;;14.02;100.00
9421;BME280;4749;51.398;5.466;2023-05-14T04:16:44;101611.41;;;14.04;100.00
9421;BME280;4749;51.398;5.466;2023-05-14T04:19:11;101612.31;;;14.07;100.00
9421;BME280;4749;51.398;5.466;2023-05-14T04:21:38;101601.72;;;14.12;100.00
9421;BME280;4749;51.398;5.466;2023-05-14T04:24:06;101609.66;;;14.18;100.00
9421;BME280;4749;51.398;5.466;2023-05-14T04:26:33;101599.13;;;14.21;100.00
9421;BME280;4749;51.398;5.466;2023-05-14T04:29:01;101604.38;;;14.27;100.00
9421;BME280;4749;51.398;5.466;2023-05-14T04:31:29;101601.75;;;14.30;100.00
9421;BME280;4749;51.398;5.466;2023-05-14T04:33:57;101599.97;;;14.37;100.00
9421;BME280;4749;51.398;5.466;2023-05-14T04:36:24;101598.19;;;14.44;100.00
9421;BME280;4749;51.398;5.466;2023-05-14T04:38:51;101602.66;;;14.48;100.00
9421;BME280;4749;51.398;5.466;2023-05-14T04:41:18;101599.09;;;14.50;100.00
9421;BME280;4749;51.398;5.466;2023-05-14T04:43:48;101604.41;;;14.56;100.00
9421;BME280;4749;51.398;5.466;2023-05-14T04:46:16;101601.72;;;14.66;100.00
9421;BME280;4749;51.398;5.466;2023-05-14T04:48:43;101597.31;;;14.72;100.00
9421;BME280;4749;51.398;5.466;2023-05-14T04:51:10;101606.13;;;14.80;100.00
9421;BME280;4749;51.398;5.466;2023-05-14T04:53:37;101591.09;;;14.84;100.00
9421;BME280;4749;51.398;5.466;2023-05-14T04:56:04;101595.47;;;14.91;100.00
9421;BME280;4749;51.398;5.466;2023-05-14T04:58:32;101594.59;;;14.93;100.00
9421;BME280;4749;51.398;5.466;2023-05-14T05:01:03;101601.63;;;14.99;100.00
9421;BME280;4749;51.398;5.466;2023-05-14T05:03:31;101596.31;;;15.07;100.00
9421;BME280;4749;51.398;5.466;2023-05-14T05:05:58;101602.47;;;15.15;100.00
9421;BME280;4749;51.398;5.466;2023-05-14T05:08:25;101607.72;;;15.23;100.00
9421;BME280;4749;51.398;5.466;2023-05-14T05:10:52;101615.63;;;15.33;100.00
9421;BME280;4749;51.398;5.466;2023-05-14T05:13:19;101614.66;;;15.45;100.00
9421;BME280;4749;51.398;5.466;2023-05-14T05:15:47;101616.41;;;15.51;100.00
9421;BME280;4749;51.398;5.466;2023-05-14T05:18:14;101617.28;;;15.56;100.00
9421;BME280;4749;51.398;5.466;2023-05-14T05:20:41;101622.53;;;15.63;100.00
9421;BME280;4749;51.398;5.466;2023-05-14T05:23:08;101628.69;;;15.73;100.00
9421;BME280;4749;51.398;5.466;2023-05-14T05:25:35;101626.91;;;15.75;100.00
9421;BME280;4749;51.398;5.466;2023-05-14T05:28:02;101626.00;;;15.79;100.00
9421;BME280;4749;51.398;5.466;2023-05-14T05:30:29;101625.03;;;15.88;100.00
9421;BME280;4749;51.398;5.466;2023-05-14T05:32:57;101632.06;;;15.96;100.00
9421;BME280;4749;51.398;5.466;2023-05-14T05:35:24;101627.59;;;16.03;100.00
9421;BME280;4749;51.398;5.466;2023-05-14T05:37:51;101622.28;;;16.03;100.00
9421;BME280;4749;51.398;5.466;2023-05-14T05:40:18;101623.16;;;16.07;100.00
9421;BME280;4749;51.398;5.466;2023-05-14T05:42:45;101625.81;;;16.08;100.00
9421;BME280;4749;51.398;5.466;2023-05-14T05:45:12;101624.91;;;16.08;100.00
9421;BME280;4749;51.398;5.466;2023-05-14T05:47:40;101630.25;;;16.01;100.00
9421;BME280;4749;51.398;5.466;2023-05-14T05:50:07;101632.88;;;16.04;100.00
9421;BME280;4749;51.398;5.466;2023-05-14T05:52:35;101631.97;;;16.09;100.00
9421;BME280;4749;51.398;5.466;2023-05-14T05:55:03;101632.88;;;16.09;100.00
9421;BME280;4749;51.398;5.466;2023-05-14T05:57:30;101620.50;;;16.08;100.00
9421;BME280;4749;51.398;5.466;2023-05-14T05:59:57;101632.81;;;16.12;100.00
9421;BME280;4749;51.398;5.466;2023-05-14T06:02:24;101629.28;;;16.13;100.00
9421;BME280;4749;51.398;5.466;2023-05-14T06:04:52;101628.34;;;16.23;100.00
9421;BME280;4749;51.398;5.466;2023-05-14T06:07:19;101634.50;;;16.25;100.00
9421;BME280;4749;51.398;5.466;2023-05-14T06:09:46;101631.78;;;16.33;100.00
9421;BME280;4749;51.398;5.466;2023-05-14T06:12:13;101639.66;;;16.42;100.00
9421;BME280;4749;51.398;5.466;2023-05-14T06:14:40;101637.81;;;16.50;100.00
9421;BME280;4749;51.398;5.466;2023-05-14T06:17:07;101631.69;;;16.44;100.00
9421;BME280;4749;51.398;5.466;2023-05-14T06:19:34;101641.34;;;16.52;100.00
9421;BME280;4749;51.398;5.466;2023-05-14T06:22:01;101642.16;;;16.59;100.00
9421;BME280;4749;51.398;5.466;2023-05-14T06:24:28;101651.84;;;16.69;100.00
9421;BME280;4749;51.398;5.466;2023-05-14T06:26:56;101654.38;;;16.80;100.00
9421;BME280;4749;51.398;5.466;2023-05-14T06:29:24;101656.00;;;16.95;100.00
9421;BME280;4749;51.398;5.466;2023-05-14T06:31:51;101655.16;;;16.91;100.00
9421;BME280;4749;51.398;5.466;2023-05-14T06:34:18;101655.94;;;17.01;100.00
9421;BME280;4749;51.398;5.466;2023-05-14T06:36:45;101645.94;;;17.21;100.00
9421;BME280;4749;51.398;5.466;2023-05-14T06:39:12;101645.50;;;17.58;100.00
9421;BME280;4749;51.398;5.466;2023-05-14T06:41:39;101649.31;;;18.02;100.00
9421;BME280;4749;51.398;5.466;2023-05-14T06:44:07;101654.84;;;18.43;100.00
9421;BME280;4749;51.398;5.466;2023-05-14T06:46:34;101658.56;;;18.86;100.00
9421;BME280;4749;51.398;5.466;2023-05-14T06:49:01;101652.63;;;19.16;100.00
9421;BME280;4749;51.398;5.466;2023-05-14T06:51:28;101660.25;;;19.36;100.00
9421;BME280;4749;51.398;5.466;2023-05-14T06:53:55;101657.31;;;19.48;100.00
9421;BME280;4749;51.398;5.466;2023-05-14T06:56:22;101649.13;;;19.57;100.00
9421;BME280;4749;51.398;5.466;2023-05-14T06:58:49;101656.19;;;19.61;100.00
9421;BME280;4749;51.398;5.466;2023-05-14T07:01:16;101648.25;;;19.57;100.00
9421;BME280;4749;51.398;5.466;2023-05-14T07:03:44;101647.56;;;19.47;100.00
9421;BME280;4749;51.398;5.466;2023-05-14T07:06:11;101646.84;;;19.39;100.00
9421;BME280;4749;51.398;5.466;2023-05-14T07:08:39;101646.94;;;19.34;100.00
9421;BME280;4749;51.398;5.466;2023-05-14T07:11:06;101644.31;;;19.31;100.00
9421;BME280;4749;51.398;5.466;2023-05-14T07:13:33;101647.03;;;19.30;100.00
9421;BME280;4749;51.398;5.466;2023-05-14T07:16:00;101640.75;;;19.32;100.00
9421;BME280;4749;51.398;5.466;2023-05-14T07:18:27;101646.94;;;19.33;100.00
9421;BME280;4749;51.398;5.466;2023-05-14T07:20:54;101651.44;;;19.31;100.00
9421;BME280;4749;51.398;5.466;2023-05-14T07:23:21;101648.78;;;19.31;100.00
9421;BME280;4749;51.398;5.466;2023-05-14T07:25:49;101647.94;;;19.29;100.00
9421;BME280;4749;51.398;5.466;2023-05-14T07:28:16;101651.44;;;19.31;100.00
9421;BME280;4749;51.398;5.466;2023-05-14T07:30:43;101649.63;;;19.33;100.00
9421;BME280;4749;51.398;5.466;2023-05-14T07:33:10;101648.75;;;19.34;100.00
9421;BME280;4749;51.398;5.466;2023-05-14T07:35:37;101650.44;;;19.36;100.00
9421;BME280;4749;51.398;5.466;2023-05-14T07:38:04;101653.91;;;19.40;100.00
9421;BME280;4749;51.398;5.466;2023-05-14T07:40:32;101657.44;;;19.42;100.00
9421;BME280;4749;51.398;5.466;2023-05-14T07:42:59;101654.94;;;19.34;100.00
9421;BME280;4749;51.398;5.466;2023-05-14T07:45:28;101649.38;;;19.45;100.00
9421;BME280;4749;51.398;5.466;2023-05-14T07:47:55;101652.53;;;19.22;100.00
9421;BME280;4749;51.398;5.466;2023-05-14T07:50:23;101651.97;;;19.05;100.00
9421;BME280;4749;51.398;5.466;2023-05-14T07:52:50;101647.50;;;19.07;100.00
9421;BME280;4749;51.398;5.466;2023-05-14T07:55:17;101652.09;;;19.00;100.00
9421;BME280;4749;51.398;5.466;2023-05-14T07:57:44;101649.38;;;19.02;100.00
9421;BME280;4749;51.398;5.466;2023-05-14T08:00:12;101645.94;;;18.95;100.00
9421;BME280;4749;51.398;5.466;2023-05-14T08:02:39;101648.72;;;18.89;100.00
9421;BME280;4749;51.398;5.466;2023-05-14T08:05:09;101648.31;;;19.10;100.00
9421;BME280;4749;51.398;5.466;2023-05-14T08:07:36;101648.03;;;19.26;100.00
9421;BME280;4749;51.398;5.466;2023-05-14T08:10:03;101654.84;;;19.39;100.00
9421;BME280;4749;51.398;5.466;2023-05-14T08:12:31;101657.25;;;19.50;100.00
9421;BME280;4749;51.398;5.466;2023-05-14T08:14:58;101656.44;;;19.48;100.00
9421;BME280;4749;51.398;5.466;2023-05-14T08:17:25;101654.31;;;19.65;100.00
9421;BME280;4749;51.398;5.466;2023-05-14T08:19:52;101651.88;;;19.94;100.00
9421;BME280;4749;51.398;5.466;2023-05-14T08:22:20;101655.53;;;20.28;100.00
9421;BME280;4749;51.398;5.466;2023-05-14T08:24:47;101665.72;;;20.47;100.00
9421;BME280;4749;51.398;5.466;2023-05-14T08:27:14;101658.72;;;20.76;100.00
9421;BME280;4749;51.398;5.466;2023-05-14T08:29:42;101658.28;;;20.93;100.00
9421;BME280;4749;51.398;5.466;2023-05-14T08:32:09;101658.94;;;21.01;100.00
9421;BME280;4749;51.398;5.466;2023-05-14T08:34:49;101656.69;;;21.18;100.00
9421;BME280;4749;51.398;5.466;2023-05-14T08:37:17;101649.22;;;21.31;100.00
9421;BME280;4749;51.398;5.466;2023-05-14T08:39:44;101647.97;;;21.43;100.00
9421;BME280;4749;51.398;5.466;2023-05-14T08:42:12;101646.06;;;21.48;100.00
9421;BME280;4749;51.398;5.466;2023-05-14T08:44:50;101650.34;;;21.53;100.00
9421;BME280;4749;51.398;5.466;2023-05-14T08:47:21;101646.81;;;21.51;100.00
9421;BME280;4749;51.398;5.466;2023-05-14T08:50:03;101641.69;;;21.44;100.00
9421;BME280;4749;51.398;5.466;2023-05-14T08:52:32;101635.56;;;21.40;100.00
9421;BME280;4749;51.398;5.466;2023-05-14T08:55:02;101641.16;;;21.32;100.00
9421;BME280;4749;51.398;5.466;2023-05-14T08:57:31;101628.81;;;21.28;100.00
9421;BME280;4749;51.398;5.466;2023-05-14T09:00:00;101623.34;;;21.31;100.00
9421;BME280;4749;51.398;5.466;2023-05-14T09:02:30;101619.53;;;21.40;100.00
9421;BME280;4749;51.398;5.466;2023-05-14T09:05:01;101617.50;;;21.48;100.00
9421;BME280;4749;51.398;5.466;2023-05-14T09:07:29;101618.25;;;21.52;100.00
9421;BME280;4749;51.398;5.466;2023-05-14T09:09:57;101613.66;;;21.57;100.00
9421;BME280;4749;51.398;5.466;2023-05-14T09:12:25;101614.41;;;21.62;100.00
9421;BME280;4749;51.398;5.466;2023-05-14T09:14:52;101616.97;;;21.65;100.00
9421;BME280;4749;51.398;5.466;2023-05-14T09:17:19;101615.94;;;21.69;100.00
9421;BME280;4749;51.398;5.466;2023-05-14T09:19:47;101614.13;;;21.71;100.00
9421;BME280;4749;51.398;5.466;2023-05-14T09:22:19;101622.03;;;21.74;100.00
9421;BME280;4749;51.398;5.466;2023-05-14T09:25:05;101616.44;;;21.82;100.00
9421;BME280;4749;51.398;5.466;2023-05-14T09:27:33;101612.78;;;21.84;100.00
9421;BME280;4749;51.398;5.466;2023-05-14T09:30:11;101615.16;;;21.93;100.00
9421;BME280;4749;51.398;5.466;2023-05-14T09:32:43;101615.03;;;21.98;100.00
9421;BME280;4749;51.398;5.466;2023-05-14T09:35:20;101616.66;;;22.04;100.00
9421;BME280;4749;51.398;5.466;2023-05-14T09:37:55;101611.94;;;22.12;100.00
9421;BME280;4749;51.398;5.466;2023-05-14T09:40:23;101611.63;;;22.21;100.00
9421;BME280;4749;51.398;5.466;2023-05-14T09:42:51;101606.03;;;22.29;98.91
9421;BME280;4749;51.398;5.466;2023-05-14T09:45:18;101604.09;;;22.32;97.83
9421;BME280;4749;51.398;5.466;2023-05-14T09:47:45;101597.81;;;22.33;95.84
9421;BME280;4749;51.398;5.466;2023-05-14T09:50:13;101603.97;;;22.37;93.43
9421;BME280;4749;51.398;5.466;2023-05-14T09:52:41;101600.19;;;22.42;92.45
9421;BME280;4749;51.398;5.466;2023-05-14T09:55:08;101596.25;;;22.53;92.80
9421;BME280;4749;51.398;5.466;2023-05-14T09:57:35;101605.75;;;22.61;90.40
9421;BME280;4749;51.398;5.466;2023-05-14T10:00:03;101593.94;;;22.67;88.76
9421;BME280;4749;51.398;5.466;2023-05-14T10:02:37;101596.47;;;22.71;87.00
9421;BME280;4749;51.398;5.466;2023-05-14T10:05:07;101586.38;;;22.78;86.88
9421;BME280;4749;51.398;5.466;2023-05-14T10:07:43;101580.81;;;22.84;86.83
9421;BME280;4749;51.398;5.466;2023-05-14T10:10:17;101579.63;;;22.93;87.00
9421;BME280;4749;51.398;5.466;2023-05-14T10:13:14;101589.19;;;23.00;85.55
9421;BME280;4749;51.398;5.466;2023-05-14T10:16:21;101587.19;;;23.07;85.28
9421;BME280;4749;51.398;5.466;2023-05-14T10:18:59;101581.75;;;23.08;86.06
9421;BME280;4749;51.398;5.466;2023-05-14T10:21:29;101578.94;;;23.11;85.68
9421;BME280;4749;51.398;5.466;2023-05-14T10:23:59;101573.34;;;23.17;85.00
9421;BME280;4749;51.398;5.466;2023-05-14T10:26:27;101572.25;;;23.23;84.33
9421;BME280;4749;51.398;5.466;2023-05-14T10:28:54;101576.31;;;23.33;83.67
9421;BME280;4749;51.398;5.466;2023-05-14T10:31:45;101568.84;;;23.41;82.88
9421;BME280;4749;51.398;5.466;2023-05-14T10:34:30;101566.53;;;23.54;81.78
9421;BME280;4749;51.398;5.466;2023-05-14T10:37:15;101567.13;;;23.62;82.15
9421;BME280;4749;51.398;5.466;2023-05-14T10:40:00;101563.34;;;23.68;80.96
9421;BME280;4749;51.398;5.466;2023-05-14T10:42:32;101565.78;;;23.74;80.44
9421;BME280;4749;51.398;5.466;2023-05-14T10:45:12;101562.91;;;23.78;79.28
9421;BME280;4749;51.398;5.466;2023-05-14T10:47:42;101560.09;;;23.81;78.64
9421;BME280;4749;51.398;5.466;2023-05-14T10:50:13;101568.03;;;23.84;77.75
9421;BME280;4749;51.398;5.466;2023-05-14T10:52:44;101559.03;;;23.85;77.21
9421;BME280;4749;51.398;5.466;2023-05-14T10:55:14;101561.53;;;23.90;77.07
9421;BME280;4749;51.398;5.466;2023-05-14T10:57:44;101551.44;;;23.95;76.37
9421;BME280;4749;51.398;5.466;2023-05-14T11:00:13;101558.41;;;24.01;75.44
9421;BME280;4749;51.398;5.466;2023-05-14T11:02:42;101547.59;;;24.02;74.30
9421;BME280;4749;51.398;5.466;2023-05-14T11:05:15;101557.38;;;24.03;73.54
9421;BME280;4749;51.398;5.466;2023-05-14T11:07:48;101546.53;;;24.06;73.37
9421;BME280;4749;51.398;5.466;2023-05-14T11:10:20;101542.91;;;24.07;72.08
9421;BME280;4749;51.398;5.466;2023-05-14T11:12:49;101539.28;;;24.08;71.57
9421;BME280;4749;51.398;5.466;2023-05-14T11:15:20;101531.22;;;24.08;70.19
9421;BME280;4749;51.398;5.466;2023-05-14T11:17:49;101544.56;;;24.10;69.16
9421;BME280;4749;51.398;5.466;2023-05-14T11:20:18;101540.94;;;24.11;68.92
9421;BME280;4749;51.398;5.466;2023-05-14T11:22:47;101535.31;;;24.17;68.48
9421;BME280;4749;51.398;5.466;2023-05-14T11:25:16;101537.59;;;24.26;69.07
9421;BME280;4749;51.398;5.466;2023-05-14T11:27:46;101528.28;;;24.35;68.40
9421;BME280;4749;51.398;5.466;2023-05-14T11:30:20;101530.03;;;24.36;68.20
9421;BME280;4749;51.398;5.466;2023-05-14T11:32:51;101517.06;;;24.46;68.05
9421;BME280;4749;51.398;5.466;2023-05-14T11:35:20;101527.41;;;24.55;67.88
9421;BME280;4749;51.398;5.466;2023-05-14T11:37:50;101522.63;;;24.61;67.48
9421;BME280;4749;51.398;5.466;2023-05-14T11:40:18;101519.88;;;24.63;67.57
9421;BME280;4749;51.398;5.466;2023-05-14T11:42:45;101512.13;;;24.76;67.61
9421;BME280;4749;51.398;5.466;2023-05-14T11:45:23;101509.72;;;24.88;67.01
9421;BME280;4749;51.398;5.466;2023-05-14T11:47:52;101511.78;;;25.02;66.47
9421;BME280;4749;51.398;5.466;2023-05-14T11:50:21;101503.03;;;25.17;66.32
9421;BME280;4749;51.398;5.466;2023-05-14T11:52:49;101506.81;;;25.32;65.99
9421;BME280;4749;51.398;5.466;2023-05-14T11:55:16;101504.41;;;25.26;65.94
9421;BME280;4749;51.398;5.466;2023-05-14T11:57:44;101494.22;;;25.14;65.67
9421;BME280;4749;51.398;5.466;2023-05-14T12:00:12;101502.00;;;25.20;65.39
9421;BME280;4749;51.398;5.466;2023-05-14T12:02:40;101504.25;;;25.29;65.06
9421;BME280;4749;51.398;5.466;2023-05-14T12:05:11;101492.91;;;25.41;64.15
9421;BME280;4749;51.398;5.466;2023-05-14T12:07:38;101497.03;;;25.48;64.35
9421;BME280;4749;51.398;5.466;2023-05-14T12:10:07;101491.53;;;25.33;63.96
9421;BME280;4749;51.398;5.466;2023-05-14T12:12:35;101498.91;;;25.46;62.83
9421;BME280;4749;51.398;5.466;2023-05-14T12:15:12;101489.84;;;25.30;62.95
9421;BME280;4749;51.398;5.466;2023-05-14T12:17:40;101492.25;;;25.17;63.04
9421;BME280;4749;51.398;5.466;2023-05-14T12:20:09;101493.19;;;24.97;62.37
9421;BME280;4749;51.398;5.466;2023-05-14T12:22:37;101494.41;;;24.90;62.13
9421;BME280;4749;51.398;5.466;2023-05-14T12:25:11;101488.47;;;25.21;61.34
9421;BME280;4749;51.398;5.466;2023-05-14T12:27:43;101484.81;;;25.41;60.76
9421;BME280;4749;51.398;5.466;2023-05-14T12:30:12;101473.41;;;25.72;60.45
9421;BME280;4749;51.398;5.466;2023-05-14T12:32:42;101466.53;;;26.01;59.08
9421;BME280;4749;51.398;5.466;2023-05-14T12:35:09;101466.94;;;26.11;57.86
9421;BME280;4749;51.398;5.466;2023-05-14T12:37:37;101462.72;;;26.23;57.94
9421;BME280;4749;51.398;5.466;2023-05-14T12:40:06;101470.16;;;26.52;57.47
9421;BME280;4749;51.398;5.466;2023-05-14T12:42:36;101464.47;;;26.74;56.64
9421;BME280;4749;51.398;5.466;2023-05-14T12:45:04;101454.28;;;26.95;56.05
9421;BME280;4749;51.398;5.466;2023-05-14T12:47:33;101457.56;;;27.17;56.04
9421;BME280;4749;51.398;5.466;2023-05-14T12:50:03;101454.03;;;27.47;55.68
9421;BME280;4749;51.398;5.466;2023-05-14T12:52:30;101451.41;;;27.61;55.38
9421;BME280;4749;51.398;5.466;2023-05-14T12:55:00;101449.09;;;27.39;55.09
9421;BME280;4749;51.398;5.466;2023-05-14T12:57:27;101439.34;;;27.37;54.92
9421;BME280;4749;51.398;5.466;2023-05-14T12:59:56;101442.03;;;27.53;54.31
9421;BME280;4749;51.398;5.466;2023-05-14T13:02:23;101446.34;;;27.71;53.48
9421;BME280;4749;51.398;5.466;2023-05-14T13:04:50;101442.13;;;27.81;52.45
9421;BME280;4749;51.398;5.466;2023-05-14T13:07:17;101441.31;;;27.95;52.34
9421;BME280;4749;51.398;5.466;2023-05-14T13:09:44;101437.78;;;28.09;51.63
9421;BME280;4749;51.398;5.466;2023-05-14T13:12:11;101429.09;;;28.18;51.39
9421;BME280;4749;51.398;5.466;2023-05-14T13:14:38;101426.88;;;28.24;51.39
9421;BME280;4749;51.398;5.466;2023-05-14T13:17:06;101430.53;;;28.23;51.27